Flight Track Log - Related Links

Times and Time Zones

All times are in EDT time to prevent confusion due to time zone crossing. See the AAY843 flight status page for this flight to view local times or setup timezone preferences in your user account.

Time Position Orientation Groundspeed Altitude Reporting Facility
EDT Latitude Longitude Course Direction KTS MPH feet Rate Location/Type
Mon 07:09:31 PM 43.1089 -76.0869 126° Southeast 161 185 1,200  Level Boston Center
Mon 07:10:32 PM 43.0844 -76.0414 126° Southeast 195 224 3,000 1,714 Climbing Boston Center
Mon 07:11:09 PM 43.0583 -76.0650 213° Southwest 207 238 4,000 1,900 Climbing Boston Center
Mon 07:11:32 PM 43.0381 -76.0881 220° Southwest 236 272 4,900 2,557 Climbing Boston Center
Mon 07:12:10 PM 43.0106 -76.1253 225° Southwest 226 260 6,600 2,667 Climbing Boston Center
Mon 07:13:11 PM 42.9708 -76.2006 234° Southwest 242 278 9,300 1,623 Climbing Boston Center
Mon 07:14:12 PM 42.9269 -76.2742 231° Southwest 249 287 9,900 984 Climbing Boston Center
Mon 07:15:13 PM 42.8817 -76.3567 233° Southwest 270 311 11,300 1,426 Climbing Boston Center
Mon 07:16:14 PM 42.7858 -76.4103 202° Southwest 348 400 12,800 1,525 Climbing Boston Center
Mon 07:17:15 PM 42.6814 -76.4342 190° South 375 432 14,400 1,785 Climbing Boston Center
Mon 07:18:15 PM 42.5722 -76.4658 192° South 394 453 16,400 2,132 Climbing Boston Center
Mon 07:19:16 PM 42.4594 -76.4972 192° South 409 471 18,700 2,016 Climbing Boston Center
Mon 07:20:17 PM 42.3469 -76.5267 191° South 412 474 20,500 1,623 Climbing Boston Center
Mon 07:21:18 PM 42.2436 -76.5547 191° South 415 478 22,000 1,574 Climbing Boston Center
Mon 07:22:19 PM 42.1181 -76.5897 192° South 421 484 23,700 1,475 Climbing Boston Center
Mon 07:23:20 PM 41.9914 -76.6253 192° South 421 484 25,000 1,140 Climbing New York Center
Mon 07:24:20 PM 41.8669 -76.6614 192° South 431 496 26,000 1,000 Climbing New York Center
Mon 07:25:20 PM 41.7656 -76.6858 190° South 454 522 27,000 1,300 Climbing New York Center
Mon 07:26:20 PM 41.6158 -76.7228 190° South 459 528 28,600 1,500 Climbing New York Center
Mon 07:27:20 PM 41.4933 -76.7589 192° South 459 528 30,000 1,400 Climbing New York Center
Mon 07:28:20 PM 41.3728 -76.7925 192° South 453 521 31,400 1,000 Climbing New York Center
Mon 07:29:20 PM 41.2547 -76.8233 191° South 448 516 32,000 300 Climbing New York Center
Mon 07:30:20 PM 41.1342 -76.8567 192° South 443 510 32,000  Level New York Center
Mon 07:31:20 PM 41.0181 -76.8875 191° South 438 504 32,000  Level New York Center
Mon 07:32:20 PM 40.8997 -76.9181 191° South 438 504 32,000  Level New York Center
Mon 07:33:20 PM 40.7814 -76.9486 191° South 438 504 32,000  Level New York Center
Mon 07:34:20 PM 40.6633 -76.9761 190° South 438 504 32,000  Level New York Center
Mon 07:35:20 PM 40.5450 -77.0064 191° South 438 504 32,000  Level New York Center
Mon 07:36:20 PM 40.4222 -77.0389 191° South 444 511 32,000  Level New York Center
Mon 07:37:20 PM 40.3039 -77.0719 192° South 444 511 32,000  Level New York Center
Mon 07:39:25 PM 40.0742 -77.1828 200° South 440 506 32,000  Level Washington Center
Mon 07:40:26 PM 39.9631 -77.2344 200° South 434 499 32,000  Level Washington Center
Mon 07:41:26 PM 39.8517 -77.2889 201° Southwest 429 494 32,000  Level Washington Center
Mon 07:42:25 PM 39.7428 -77.3403 200° South 429 494 32,000  Level Washington Center
Mon 07:43:25 PM 39.6461 -77.3892 201° Southwest 429 494 32,000  Level Washington Center
Mon 07:44:26 PM 39.5347 -77.4428 200° South 429 494 32,000  Level Washington Center
Mon 07:45:26 PM 39.4214 -77.4964 200° South 434 499 32,000  Level Washington Center
Mon 07:46:24 PM 39.3103 -77.5497 200° South 434 499 32,000  Level Washington Center
Mon 07:47:24 PM 39.1947 -77.6028 200° South 434 499 32,000  Level Washington Center
Mon 07:48:25 PM 39.0811 -77.6558 200° South 434 499 32,000  Level Washington Center
Mon 07:49:26 PM 38.9572 -77.7164 201° Southwest 434 499 32,000  Level Washington Center
Mon 07:50:24 PM 38.8458 -77.7667 199° South 434 499 32,000  Level Washington Center
Mon 07:51:24 PM 38.7300 -77.8217 200° South 434 499 32,000  Level Washington Center
Mon 07:52:26 PM 38.6144 -77.8767 200° South 434 499 32,000  Level Washington Center
Mon 07:53:24 PM 38.5028 -77.9289 200° South 434 499 32,000  Level Washington Center
Mon 07:54:24 PM 38.3892 -77.9811 200° South 434 499 32,000  Level Washington Center
Mon 07:55:25 PM 38.2756 -78.0331 200° South 434 499 32,000  Level Washington Center
Mon 07:56:24 PM 38.1597 -78.0872 200° South 434 499 32,000  Level Washington Center
Mon 07:57:24 PM 38.0522 -78.1522 205° Southwest 434 499 32,000  Level Washington Center
Mon 07:58:24 PM 37.9528 -78.2175 207° Southwest 419 482 32,000  Level Washington Center
Mon 07:59:26 PM 37.8469 -78.2819 206° Southwest 419 482 32,000  Level Washington Center
Mon 08:00:27 PM 37.7411 -78.3492 207° Southwest 426 490 32,000  Level Washington Center
Mon 08:01:24 PM 37.6331 -78.4186 207° Southwest 426 490 32,000  Level Washington Center
Mon 08:02:25 PM 37.5231 -78.4881 207° Southwest 437 503 32,000  Level Washington Center
Mon 08:03:25 PM 37.4256 -78.5469 206° Southwest 437 503 32,000  Level Washington Center
Mon 08:04:26 PM 37.3197 -78.6161 207° Southwest 437 503 32,000  Level Washington Center
Mon 08:05:26 PM 37.2094 -78.6822 206° Southwest 437 503 32,000  Level Washington Center
Mon 08:06:24 PM 37.1014 -78.7506 207° Southwest 437 503 32,000  Level Washington Center
Mon 08:07:25 PM 36.9931 -78.8189 207° Southwest 437 503 32,000  Level Washington Center
Mon 08:08:25 PM 36.8678 -78.8942 206° Southwest 442 509 32,000  Level Washington Center
Mon 08:09:26 PM 36.7575 -78.9594 205° Southwest 442 509 32,000  Level Washington Center
Mon 08:10:26 PM 36.6494 -79.0247 206° Southwest 442 509 32,000  Level Washington Center
Mon 08:11:24 PM 36.5272 -79.0608 193° South 442 509 32,000  Level Washington Center
Mon 08:12:24 PM 36.4075 -79.0942 193° South 447 514 32,000  Level Washington Center
Mon 08:13:25 PM 36.2833 -79.1272 192° South 447 514 32,000  Level Washington Center
Mon 08:14:25 PM 36.1611 -79.1631 193° South 453 521 32,000  Level Washington Center
Mon 08:15:26 PM 36.0372 -79.1958 192° South 453 521 32,000  Level Washington Center
Mon 08:16:26 PM 35.9131 -79.2311 193° South 453 521 32,000  Level Washington Center
Mon 08:17:25 PM 35.7889 -79.2664 193° South 453 521 32,000  Level Washington Center
Mon 08:18:26 PM 35.6667 -79.2992 192° South 453 521 32,000  Level Washington Center
Mon 08:19:26 PM 35.5447 -79.3344 193° South 453 521 32,000  Level Washington Center
Mon 08:20:25 PM 35.4331 -79.3647 192° South 453 521 32,000  Level Washington Center
Mon 08:21:25 PM 35.2942 -79.4017 192° South 460 529 32,000  Level Washington Center
Mon 08:22:26 PM 35.1700 -79.4364 193° South 460 529 32,000  Level Washington Center
Mon 08:23:26 PM 35.0583 -79.4664 192° South 460 529 32,000  Level Washington Center
Mon 08:25:07 PM 34.8367 -79.5261 192° South 459 528 32,000  Level Jacksonville Center
Mon 08:26:07 PM 34.7125 -79.5589 192° South 454 522 32,000  Level Jacksonville Center
Mon 08:27:07 PM 34.6011 -79.6161 203° Southwest 442 509 32,000  Level Jacksonville Center
Mon 08:28:07 PM 34.4989 -79.6931 212° Southwest 435 501 32,000  Level Jacksonville Center
Mon 08:29:07 PM 34.4108 -79.7592 212° Southwest 435 501 32,000  Level Jacksonville Center
Mon 08:30:07 PM 34.3083 -79.8358 212° Southwest 435 501 32,000  Level Jacksonville Center
Mon 08:31:07 PM 34.2061 -79.9147 213° Southwest 435 501 32,000  Level Jacksonville Center
Mon 08:32:07 PM 34.1014 -79.9936 212° Southwest 440 506 32,000  Level Jacksonville Center
Mon 08:33:07 PM 33.9989 -80.0694 212° Southwest 440 506 32,000  Level Jacksonville Center
Mon 08:34:07 PM 33.8964 -80.1478 212° Southwest 445 512 32,000  Level Jacksonville Center
Mon 08:35:07 PM 33.7956 -80.2236 212° Southwest 445 512 32,000  Level Jacksonville Center
Mon 08:36:07 PM 33.6908 -80.2992 211° Southwest 445 512 32,000  Level Jacksonville Center
Mon 08:37:07 PM 33.5881 -80.3769 212° Southwest 445 512 32,000  Level Jacksonville Center
Mon 08:38:07 PM 33.4750 -80.4597 211° Southwest 445 512 32,000  Level Jacksonville Center
Mon 08:39:07 PM 33.3719 -80.5372 212° Southwest 445 512 32,000  Level Jacksonville Center
Mon 08:40:07 PM 33.2669 -80.6119 211° Southwest 440 506 32,000  Level Jacksonville Center
Mon 08:41:07 PM 33.1639 -80.6867 211° Southwest 440 506 32,000  Level Jacksonville Center
Mon 08:42:07 PM 33.0586 -80.7611 211° Southwest 440 506 32,000  Level Jacksonville Center
Mon 08:43:07 PM 32.9536 -80.8378 212° Southwest 440 506 32,000  Level Jacksonville Center
Mon 08:44:07 PM 32.8503 -80.9119 211° Southwest 440 506 32,000  Level Jacksonville Center
Mon 08:45:07 PM 32.7450 -80.9883 211° Southwest 445 512 32,000  Level Jacksonville Center
Mon 08:46:07 PM 32.6542 -81.0544 212° Southwest 437 503 32,000  Level Jacksonville Center
Mon 08:47:07 PM 32.5428 -81.1356 212° Southwest 427 491 32,000  Level Jacksonville Center
Mon 08:48:07 PM 32.4414 -81.2064 211° Southwest 427 491 32,000  Level Jacksonville Center
Mon 08:49:07 PM 32.3400 -81.2794 211° Southwest 433 498 32,000  Level Jacksonville Center
Mon 08:50:07 PM 32.2386 -81.3478 210° Southwest 421 484 32,000  Level Jacksonville Center
Mon 08:51:07 PM 32.1414 -81.4228 213° Southwest 426 490 32,000  Level Jacksonville Center
Mon 08:52:07 PM 32.0481 -81.4856 210° Southwest 417 480 32,000  Level Jacksonville Center
Mon 08:53:07 PM 31.9383 -81.5583 209° Southwest 424 488 32,000  Level Jacksonville Center
Mon 08:54:07 PM 31.8217 -81.5992 197° South 429 494 32,000 -450 Level Jacksonville Center
Mon 08:55:07 PM 31.7156 -81.6372 197° South 444 511 31,100 -900 Descending Jacksonville Center
Mon 08:56:07 PM 31.5867 -81.6828 197° South 444 511 30,200 -550 Descending Jacksonville Center
Mon 08:57:07 PM 31.4764 -81.7183 195° South 449 517 30,000 -100 Descending Jacksonville Center
Mon 08:58:07 PM 31.3597 -81.7611 197° South 449 517 30,000  Level Jacksonville Center
Mon 08:59:07 PM 31.2369 -81.8042 197° South 454 522 30,000  Level Jacksonville Center
Mon 09:00:07 PM 31.1142 -81.8442 196° South 454 522 30,000  Level Jacksonville Center
Mon 09:01:07 PM 30.9892 -81.8747 192° South 459 528 30,000  Level Jacksonville Center
Mon 09:02:07 PM 30.8639 -81.9050 192° South 459 528 30,000  Level Jacksonville Center
Mon 09:03:07 PM 30.7369 -81.9403 193° South 464 534 30,000  Level Jacksonville Center
Mon 09:04:07 PM 30.6097 -81.9753 193° South 469 540 30,000  Level Jacksonville Center
Mon 09:05:07 PM 30.4847 -82.0031 191° South 469 540 30,000  Level Jacksonville Center
Mon 09:06:07 PM 30.3597 -82.0381 194° South 469 540 30,000  Level Jacksonville Center
Mon 09:07:07 PM 30.2347 -82.0728 193° South 464 534 30,000  Level Jacksonville Center
Mon 09:08:07 PM 30.1097 -82.1050 193° South 464 534 30,000  Level Jacksonville Center
Mon 09:09:07 PM 29.9700 -82.1469 195° South 464 534 30,000 -150 Level Jacksonville Center
Mon 09:10:07 PM 29.8469 -82.1789 193° South 471 542 29,700 -650 Descending Jacksonville Center
Mon 09:11:07 PM 29.7261 -82.2061 191° South 466 536 28,700 -1,000 Descending Jacksonville Center
Mon 09:12:07 PM 29.6008 -82.2428 194° South 461 531 27,700 -1,000 Descending Jacksonville Center
Mon 09:13:07 PM 29.4781 -82.2772 194° South 461 531 26,700 -950 Descending Jacksonville Center
Mon 09:14:07 PM 29.3486 -82.3114 193° South 461 531 25,800 -1,700 Descending Jacksonville Center
Mon 09:15:07 PM 29.2214 -82.3431 192° South 471 542 23,300 -2,450 Descending Jacksonville Center
Mon 09:16:07 PM 29.0986 -82.3769 194° South 465 535 20,900 -1,400 Descending Jacksonville Center
Mon 09:18:07 PM 28.8667 -82.4333 192° South 437 503 19,100 -1,241 Descending Tampa TRACON
Mon 09:19:01 PM 28.7667 -82.4667 196° South 417 480 17,300 -2,500 Descending Tampa TRACON
Mon 09:20:07 PM 28.6500 -82.5000 194° South 387 445 14,100 -2,950 Descending Tampa TRACON
Mon 09:21:01 PM 28.5500 -82.5500 204° Southwest 389 448 11,400 -1,778 Descending Tampa TRACON
Mon 09:21:55 PM 28.4667 -82.6000 208° Southwest 388 447 10,900 -600 Descending Tampa TRACON
Mon 09:23:01 PM 28.3833 -82.6500 208° Southwest 296 341 10,200 -1,190 Descending Tampa TRACON
Mon 09:24:01 PM 28.3167 -82.6833 204° Southwest 277 319 8,400 -1,800 Descending Tampa TRACON
Mon 09:25:01 PM 28.2333 -82.6833 180° South 275 316 6,600 -1,950 Descending Tampa TRACON
Mon 09:26:01 PM 28.1667 -82.6833 180° South 251 289 4,500 -2,050 Descending Tampa TRACON
Mon 09:27:01 PM 28.0833 -82.7000 190° South 251 289 2,500 -1,450 Descending Tampa TRACON
Mon 09:28:01 PM 28.0333 -82.7000 180° South 209 241 1,600 -800 Descending Tampa TRACON
Mon 09:29:01 PM 27.9833 -82.7000 180° South 173 199 900 -650 Descending Tampa TRACON
Mon 09:30:01 PM 27.9333 -82.7000 180° South 131 151 300 -600 Descending Tampa TRACON

Login

Don't have an account? Register now (free) for customized features, flight alerts, and more!